Time;durP1;ratioP1;P1;durP2;ratioP2;P2;SDS_P1;SDS_P2;PMS_P1;PMS_P2;Temp;Humidity;BMP_temperature;BMP_pressure;BME280_temperature;BME280_humidity;BME280_pressure;Samples;Min_cycle;Max_cycle;Signal;HPM_P1;HPM_P2
2021/06/25 00:02:02;;;;;;;43.53;6.28;;;19.90;81.60;;;;;;5023537;28;20474;-59
2021/06/25 00:04:28;;;;;;;47.85;5.40;;;19.90;81.60;;;;;;5017343;28;20033;-59
2021/06/25 00:06:53;;;;;;;50.50;5.53;;;19.90;81.60;;;;;;5015235;28;20030;-59
2021/06/25 00:09:19;;;;;;;31.23;4.85;;;19.90;81.60;;;;;;5013625;28;20034;-59
2021/06/25 00:11:44;;;;;;;33.45;4.82;;;19.90;81.70;;;;;;5001535;28;20033;-59
2021/06/25 00:14:09;;;;;;;38.08;4.57;;;19.90;81.70;;;;;;5003782;28;20505;-59
2021/06/25 00:16:35;;;;;;;29.05;4.40;;;19.90;81.60;;;;;;5013834;28;20033;-59
2021/06/25 00:19:01;;;;;;;33.15;4.85;;;19.90;81.60;;;;;;5020337;28;20042;-59
2021/06/25 00:21:26;;;;;;;30.52;4.97;;;19.90;81.60;;;;;;5000241;28;20042;-59
2021/06/25 00:23:51;;;;;;;30.38;5.20;;;19.90;81.60;;;;;;4993287;28;20113;-59
2021/06/25 00:26:17;;;;;;;29.63;5.65;;;19.80;81.60;;;;;;5002881;28;20009;-59
2021/06/25 00:28:43;;;;;;;33.08;4.85;;;19.80;81.60;;;;;;4998883;28;20364;-59
2021/06/25 00:31:08;;;;;;;31.52;4.60;;;19.80;81.70;;;;;;4984672;28;20084;-59
2021/06/25 00:33:34;;;;;;;27.23;4.97;;;19.80;81.70;;;;;;5002683;28;20679;-60
2021/06/25 00:35:59;;;;;;;28.73;5.15;;;19.80;81.80;;;;;;4994233;28;20046;-59
2021/06/25 00:38:25;;;;;;;30.02;4.75;;;19.80;81.80;;;;;;4998416;28;20088;-59
2021/06/25 00:40:50;;;;;;;25.27;5.22;;;19.80;81.90;;;;;;5000247;28;20022;-59
2021/06/25 00:43:16;;;;;;;29.00;5.25;;;19.80;81.90;;;;;;4989287;28;20375;-59
2021/06/25 00:45:42;;;;;;;25.67;4.45;;;19.70;81.90;;;;;;5003154;28;20033;-59
2021/06/25 00:48:08;;;;;;;30.77;4.95;;;19.80;82.00;;;;;;5009302;28;20537;-59
2021/06/25 00:50:35;;;;;;;30.80;4.30;;;19.70;81.90;;;;;;5011498;28;20029;-59
2021/06/25 00:53:00;;;;;;;31.88;4.57;;;19.80;82.00;;;;;;4995322;28;20036;-59
2021/06/25 00:55:27;;;;;;;30.92;5.15;;;19.70;82.00;;;;;;4974873;28;20047;-59
2021/06/25 00:57:52;;;;;;;25.35;4.25;;;19.70;82.00;;;;;;4988434;28;20044;-59
2021/06/25 01:00:18;;;;;;;21.75;3.58;;;19.70;82.10;;;;;;5004430;28;20474;-59
2021/06/25 01:02:44;;;;;;;20.48;3.92;;;19.70;82.10;;;;;;4994158;28;20026;-59
2021/06/25 01:05:11;;;;;;;23.90;4.63;;;19.70;82.00;;;;;;4960065;28;20501;-59
2021/06/25 01:07:37;;;;;;;28.63;4.28;;;19.70;82.10;;;;;;5001153;28;20394;-59
2021/06/25 01:10:04;;;;;;;21.45;3.95;;;19.70;82.00;;;;;;5012488;28;20034;-59
2021/06/25 01:12:30;;;;;;;17.38;4.13;;;19.70;82.10;;;;;;5012157;28;20068;-59
2021/06/25 01:14:55;;;;;;;14.10;4.07;;;19.70;82.20;;;;;;4999486;28;20058;-60
2021/06/25 01:17:38;;;;;;;25.73;4.15;;;19.60;82.20;;;;;;4999464;28;20038;-59
2021/06/25 01:20:06;;;;;;;20.55;5.30;;;19.60;82.20;;;;;;4993417;28;20042;-59
2021/06/25 01:22:35;;;;;;;20.38;4.80;;;19.60;82.20;;;;;;4988916;28;20026;-59
2021/06/25 01:25:14;;;;;;;18.70;5.32;;;19.60;82.10;;;;;;4982457;28;20033;-60
2021/06/25 01:27:40;;;;;;;15.50;5.13;;;19.60;82.30;;;;;;4979438;28;20026;-59
2021/06/25 01:30:10;;;;;;;15.13;5.13;;;19.60;82.30;;;;;;4990834;28;20505;-60
2021/06/25 01:32:36;;;;;;;22.75;4.80;;;19.60;82.30;;;;;;5000638;28;20466;-60
2021/06/25 01:35:02;;;;;;;15.40;4.18;;;19.60;82.40;;;;;;4988222;28;20059;-59
2021/06/25 01:37:28;;;;;;;13.48;3.72;;;19.60;82.40;;;;;;4995325;28;20039;-59
2021/06/25 01:39:54;;;;;;;16.58;4.18;;;19.60;82.40;;;;;;4995488;28;20027;-59
2021/06/25 01:42:19;;;;;;;14.35;3.95;;;19.60;82.30;;;;;;4989098;28;20349;-59
2021/06/25 01:44:48;;;;;;;10.98;3.50;;;19.60;82.20;;;;;;4987174;28;20045;-59
2021/06/25 01:47:14;;;;;;;15.63;4.40;;;19.60;82.20;;;;;;4982907;28;20034;-60
2021/06/25 01:49:39;;;;;;;10.88;3.38;;;19.50;82.10;;;;;;5002703;28;20391;-59
2021/06/25 01:52:05;;;;;;;13.15;4.15;;;19.50;82.20;;;;;;5000351;28;20386;-60
2021/06/25 01:54:30;;;;;;;11.45;3.70;;;19.50;82.30;;;;;;5010898;28;20041;-59
2021/06/25 01:56:56;;;;;;;11.13;4.25;;;19.50;82.20;;;;;;4967513;28;20089;-59
2021/06/25 01:59:22;;;;;;;14.88;4.78;;;19.50;82.20;;;;;;4982864;28;20053;-60
2021/06/25 02:01:47;;;;;;;13.10;4.38;;;19.50;82.20;;;;;;4977220;28;20030;-59
2021/06/25 02:04:13;;;;;;;13.32;5.13;;;19.50;82.20;;;;;;5001046;28;20377;-59
2021/06/25 02:06:38;;;;;;;12.98;4.45;;;19.50;82.20;;;;;;5002480;28;20026;-59
2021/06/25 02:09:04;;;;;;;12.77;4.32;;;19.50;82.20;;;;;;4988972;28;20030;-60
2021/06/25 02:11:29;;;;;;;9.65;3.85;;;19.50;82.30;;;;;;4995565;28;20383;-59
2021/06/25 02:13:55;;;;;;;7.72;3.78;;;19.50;82.30;;;;;;4991397;28;20541;-59
2021/06/25 02:16:21;;;;;;;10.65;3.40;;;19.50;82.30;;;;;;4995460;28;20061;-59
2021/06/25 02:18:46;;;;;;;12.57;3.97;;;19.50;82.30;;;;;;4988977;28;20031;-59
2021/06/25 02:21:12;;;;;;;12.30;4.18;;;19.50;82.30;;;;;;4987983;28;20286;-59
2021/06/25 02:23:37;;;;;;;7.72;3.70;;;19.50;82.30;;;;;;4990071;28;20450;-59
2021/06/25 02:26:03;;;;;;;8.60;3.90;;;19.50;82.30;;;;;;4988478;28;20553;-59
2021/06/25 02:28:28;;;;;;;9.68;3.78;;;19.40;82.30;;;;;;5004340;28;20545;-60
2021/06/25 02:30:55;;;;;;;9.90;3.53;;;19.50;82.40;;;;;;4989384;28;20498;-60
2021/06/25 02:33:20;;;;;;;8.50;3.42;;;19.50;82.40;;;;;;4999596;28;20026;-59
2021/06/25 02:35:46;;;;;;;7.03;3.42;;;19.40;82.40;;;;;;4983097;28;20034;-59
2021/06/25 02:38:11;;;;;;;10.00;3.58;;;19.40;82.30;;;;;;5013971;28;20053;-60
2021/06/25 02:40:37;;;;;;;11.30;3.80;;;19.50;82.50;;;;;;4990796;28;20085;-60
2021/06/25 02:43:02;;;;;;;7.85;3.25;;;19.40;82.40;;;;;;4976844;28;20030;-59
2021/06/25 02:45:28;;;;;;;9.30;4.03;;;19.40;82.50;;;;;;5000575;28;20133;-60
2021/06/25 02:47:53;;;;;;;10.85;3.60;;;19.40;82.50;;;;;;4995850;28;20080;-60
2021/06/25 02:50:19;;;;;;;8.45;3.25;;;19.40;82.40;;;;;;4989565;28;20030;-59
2021/06/25 02:52:44;;;;;;;8.88;3.00;;;19.40;82.50;;;;;;4993916;28;20038;-59
2021/06/25 02:55:10;;;;;;;7.60;3.25;;;19.40;82.50;;;;;;4990307;28;20521;-59
2021/06/25 02:57:36;;;;;;;6.13;3.15;;;19.30;82.50;;;;;;4987556;28;20050;-59
2021/06/25 03:00:04;;;;;;;9.38;4.05;;;19.40;82.50;;;;;;4988977;28;20109;-60
2021/06/25 03:02:30;;;;;;;7.90;3.30;;;19.40;82.60;;;;;;4997010;28;20038;-59
2021/06/25 03:04:56;;;;;;;6.60;3.22;;;19.40;82.60;;;;;;4983915;28;20033;-60
2021/06/25 03:07:21;;;;;;;11.77;3.53;;;19.30;82.60;;;;;;5004921;28;20505;-59
2021/06/25 03:09:47;;;;;;;8.52;3.90;;;19.30;82.60;;;;;;4976887;28;20030;-59
2021/06/25 03:12:12;;;;;;;6.90;3.25;;;19.30;82.60;;;;;;4996209;28;20046;-59
2021/06/25 03:14:39;;;;;;;6.80;3.35;;;19.40;82.70;;;;;;4993729;28;20478;-59
2021/06/25 03:17:05;;;;;;;5.00;3.03;;;19.40;82.70;;;;;;4999258;28;20473;-59
2021/06/25 03:19:30;;;;;;;6.63;3.08;;;19.30;82.60;;;;;;4995887;28;20111;-59
2021/06/25 03:21:56;;;;;;;8.68;3.30;;;19.30;82.70;;;;;;5015164;28;20041;-60
2021/06/25 03:24:21;;;;;;;4.65;2.90;;;19.30;82.70;;;;;;5013682;28;20049;-59
2021/06/25 03:26:48;;;;;;;5.63;3.20;;;19.30;82.70;;;;;;4993193;28;20057;-60
2021/06/25 03:29:13;;;;;;;4.15;3.40;;;19.30;82.80;;;;;;5006856;28;20040;-59
2021/06/25 03:31:39;;;;;;;3.92;2.90;;;19.30;82.70;;;;;;5017934;28;20032;-60
2021/06/25 03:34:04;;;;;;;9.10;3.10;;;19.30;82.70;;;;;;5013983;28;20055;-61
2021/06/25 03:36:30;;;;;;;7.30;3.00;;;19.30;82.70;;;;;;5016507;28;20645;-59
2021/06/25 03:38:55;;;;;;;5.75;2.75;;;19.30;82.70;;;;;;5017186;28;20061;-59
2021/06/25 03:41:21;;;;;;;7.35;3.20;;;19.30;82.70;;;;;;5010573;28;20018;-59
2021/06/25 03:43:46;;;;;;;7.03;3.25;;;19.30;82.70;;;;;;5003533;28;20081;-60
2021/06/25 03:46:12;;;;;;;6.05;2.85;;;19.30;82.60;;;;;;5008665;28;20436;-60
2021/06/25 03:48:37;;;;;;;9.57;3.45;;;19.30;82.60;;;;;;5011572;28;20030;-59
2021/06/25 03:51:04;;;;;;;9.55;3.28;;;19.30;82.60;;;;;;5021395;28;20444;-59
2021/06/25 03:53:29;;;;;;;5.97;3.20;;;19.20;82.50;;;;;;5020908;28;20061;-59
2021/06/25 03:56:13;;;;;;;6.50;3.50;;;19.30;82.60;;;;;;5011107;28;20057;-59
2021/06/25 03:58:40;;;;;;;10.05;3.58;;;19.20;82.50;;;;;;4989369;28;20044;-59
2021/06/25 04:01:05;;;;;;;5.18;3.10;;;19.30;82.50;;;;;;5006602;28;20107;-59
2021/06/25 04:03:31;;;;;;;5.25;2.78;;;19.20;82.50;;;;;;4995800;28;20061;-59
2021/06/25 04:05:57;;;;;;;5.47;3.10;;;19.20;82.50;;;;;;5006637;28;20028;-60
2021/06/25 04:08:26;;;;;;;4.97;3.15;;;19.20;82.50;;;;;;4995573;28;20389;-60
2021/06/25 04:10:51;;;;;;;4.57;3.15;;;19.20;82.40;;;;;;5011004;28;20032;-60
2021/06/25 04:13:17;;;;;;;5.95;3.20;;;19.20;82.50;;;;;;5011104;28;20038;-59
2021/06/25 04:15:42;;;;;;;9.10;2.92;;;19.20;82.50;;;;;;5006552;28;20054;-59
2021/06/25 04:18:08;;;;;;;10.05;3.30;;;19.20;82.50;;;;;;5003874;28;20018;-59
2021/06/25 04:20:33;;;;;;;8.10;3.58;;;19.20;82.50;;;;;;5005442;28;20081;-60
2021/06/25 04:22:59;;;;;;;6.18;3.05;;;19.20;82.50;;;;;;4998317;28;20030;-59
2021/06/25 04:25:24;;;;;;;5.90;2.50;;;19.40;82.70;;;;;;4995686;28;20081;-60
2021/06/25 04:27:50;;;;;;;3.58;2.60;;;19.10;82.60;;;;;;4993320;28;20042;-59
2021/06/25 04:30:16;;;;;;;8.00;2.55;;;19.10;82.60;;;;;;4996628;28;20033;-59
2021/06/25 04:32:42;;;;;;;5.72;2.85;;;19.20;82.70;;;;;;5000281;28;20435;-59
2021/06/25 04:35:08;;;;;;;7.68;2.67;;;19.20;82.70;;;;;;4999286;28;20077;-60
2021/06/25 04:37:34;;;;;;;4.53;2.72;;;19.10;82.60;;;;;;5013437;28;20549;-59
2021/06/25 04:39:59;;;;;;;6.18;3.25;;;19.10;82.60;;;;;;4995483;28;20026;-60
2021/06/25 04:42:25;;;;;;;5.75;2.83;;;19.20;82.70;;;;;;4982210;28;20053;-59
2021/06/25 04:44:50;;;;;;;8.45;3.13;;;19.20;82.60;;;;;;4998385;28;20027;-60
2021/06/25 04:47:16;;;;;;;5.95;2.90;;;19.20;82.50;;;;;;4991350;28;20026;-60
2021/06/25 04:49:41;;;;;;;7.97;2.80;;;19.20;82.50;;;;;;4994997;28;20050;-60
2021/06/25 04:52:07;;;;;;;6.45;3.42;;;19.20;82.40;;;;;;4983517;28;20046;-59
2021/06/25 04:54:33;;;;;;;6.55;3.10;;;19.20;82.50;;;;;;5013129;28;20027;-59
2021/06/25 04:56:59;;;;;;;7.65;3.17;;;19.20;82.50;;;;;;4989707;28;20038;-60
2021/06/25 04:59:24;;;;;;;7.30;2.97;;;19.20;82.40;;;;;;4995707;28;20034;-59
2021/06/25 05:01:50;;;;;;;12.60;3.00;;;19.20;82.30;;;;;;4994761;28;20114;-60
2021/06/25 05:04:16;;;;;;;9.20;2.90;;;19.20;82.30;;;;;;5009535;28;20034;-59
2021/06/25 05:06:41;;;;;;;5.68;2.90;;;19.20;82.30;;;;;;4973591;28;20150;-59
2021/06/25 05:09:07;;;;;;;5.72;3.05;;;19.20;82.20;;;;;;4997155;28;20057;-60
2021/06/25 05:11:33;;;;;;;5.10;2.58;;;19.20;82.20;;;;;;5005010;28;20150;-60
2021/06/25 05:13:58;;;;;;;10.98;3.55;;;19.20;82.20;;;;;;5008554;28;20443;-60
2021/06/25 05:16:24;;;;;;;7.35;3.10;;;19.20;82.10;;;;;;5008496;28;20037;-60
2021/06/25 05:18:49;;;;;;;10.02;3.28;;;19.20;82.20;;;;;;4995437;28;20037;-60
2021/06/25 05:21:15;;;;;;;4.88;3.10;;;19.20;82.20;;;;;;5014496;28;20092;-60
2021/06/25 05:23:40;;;;;;;5.20;3.15;;;19.20;82.20;;;;;;5001416;28;20478;-59
2021/06/25 05:26:06;;;;;;;8.18;3.17;;;19.20;82.30;;;;;;4993756;28;20034;-59
2021/06/25 05:28:31;;;;;;;5.55;3.45;;;19.20;82.40;;;;;;4989137;28;20034;-60
2021/06/25 05:30:57;;;;;;;9.57;3.00;;;19.20;82.50;;;;;;4975847;28;20053;-60
2021/06/25 05:33:22;;;;;;;4.72;3.05;;;19.20;82.50;;;;;;4985248;28;20042;-60
2021/06/25 05:35:48;;;;;;;10.10;3.70;;;19.30;82.50;;;;;;4994612;28;20046;-60
2021/06/25 05:38:14;;;;;;;4.28;3.13;;;19.20;82.50;;;;;;4993265;28;21058;-60
2021/06/25 05:40:40;;;;;;;5.45;3.78;;;19.20;83.20;;;;;;4995315;28;20033;-60
2021/06/25 05:43:06;;;;;;;3.55;2.90;;;19.20;82.50;;;;;;4993703;28;20026;-60
2021/06/25 05:45:32;;;;;;;4.45;2.90;;;19.30;82.50;;;;;;4997615;28;20049;-59
2021/06/25 05:47:58;;;;;;;6.03;3.67;;;19.30;82.40;;;;;;5002852;28;20093;-60
2021/06/25 05:50:23;;;;;;;7.22;3.30;;;19.30;82.50;;;;;;4990203;28;20034;-61
2021/06/25 05:52:49;;;;;;;6.13;3.70;;;19.30;82.50;;;;;;4990891;28;20022;-60
2021/06/25 05:55:15;;;;;;;5.05;3.63;;;19.20;82.40;;;;;;4999768;28;20045;-59
2021/06/25 05:57:40;;;;;;;8.40;3.92;;;19.30;82.40;;;;;;4977716;28;20105;-59
2021/06/25 06:00:06;;;;;;;10.75;4.22;;;19.30;82.40;;;;;;4989436;28;20587;-59
2021/06/25 06:02:32;;;;;;;17.77;3.58;;;19.30;82.20;;;;;;4976484;28;20362;-60
2021/06/25 06:04:57;;;;;;;6.82;3.50;;;19.30;82.20;;;;;;4987700;28;20081;-59
2021/06/25 06:07:23;;;;;;;6.85;3.50;;;19.30;82.20;;;;;;4984282;28;20096;-60
2021/06/25 06:09:48;;;;;;;12.30;3.80;;;19.30;82.20;;;;;;4987154;28;20049;-60
2021/06/25 06:12:14;;;;;;;10.85;3.53;;;19.30;82.10;;;;;;4995686;28;20498;-59
2021/06/25 06:14:39;;;;;;;7.65;3.80;;;19.30;82.10;;;;;;4986407;28;20475;-60
2021/06/25 06:17:05;;;;;;;14.13;3.83;;;19.30;82.00;;;;;;4978334;28;20171;-60
2021/06/25 06:19:38;;;;;;;8.15;3.50;;;19.30;82.00;;;;;;4988076;28;20037;-59
2021/06/25 06:33:10;;;;;;;20.98;3.85;;;19.30;81.80;;;;;;4974271;28;20054;-59
2021/06/25 06:35:37;;;;;;;9.57;3.60;;;19.40;81.90;;;;;;4957608;28;20062;-60
2021/06/25 06:38:03;;;;;;;10.40;3.88;;;19.40;81.70;;;;;;4997534;28;20033;-60
2021/06/25 06:40:29;;;;;;;194.45;18.85;;;19.40;81.70;;;;;;4979219;28;20124;-60
2021/06/25 06:42:55;;;;;;;132.75;13.00;;;19.40;81.70;;;;;;4996011;28;20030;-59
2021/06/25 06:45:20;;;;;;;117.00;12.38;;;19.40;81.60;;;;;;4987628;28;20026;-59
2021/06/25 06:47:46;;;;;;;75.63;9.73;;;19.40;81.70;;;;;;4985636;28;20042;-59
2021/06/25 06:50:11;;;;;;;69.75;9.57;;;19.40;81.70;;;;;;4983230;28;20042;-60
2021/06/25 06:52:37;;;;;;;66.85;7.43;;;19.50;82.00;;;;;;4986562;28;20073;-59
2021/06/25 06:55:03;;;;;;;66.47;8.55;;;19.50;81.80;;;;;;4981763;28;20046;-59
2021/06/25 06:57:28;;;;;;;67.80;8.18;;;19.50;81.60;;;;;;4986596;28;20061;-60
2021/06/25 06:59:54;;;;;;;65.03;8.57;;;19.50;81.50;;;;;;4989795;28;20034;-60
2021/06/25 07:02:19;;;;;;;71.07;9.38;;;19.60;81.80;;;;;;4985788;28;20058;-60
2021/06/25 07:04:45;;;;;;;52.20;7.57;;;19.60;81.60;;;;;;4987240;28;20034;-60
2021/06/25 07:07:10;;;;;;;43.55;7.65;;;19.60;81.20;;;;;;4979042;28;20033;-59
2021/06/25 07:09:36;;;;;;;58.35;7.55;;;19.60;81.00;;;;;;4993580;28;20536;-59
2021/06/25 07:12:01;;;;;;;36.92;6.65;;;19.60;81.00;;;;;;5001495;28;20026;-59
2021/06/25 07:14:27;;;;;;;35.88;6.43;;;19.50;80.90;;;;;;4989093;28;20033;-59
2021/06/25 07:16:53;;;;;;;46.42;6.60;;;19.50;80.90;;;;;;4987121;28;20125;-59
2021/06/25 07:19:18;;;;;;;27.30;5.65;;;19.50;80.90;;;;;;4987923;28;20038;-60
2021/06/25 07:21:44;;;;;;;32.20;6.07;;;19.50;80.90;;;;;;4993402;28;20066;-59
2021/06/25 07:24:10;;;;;;;31.23;6.35;;;19.50;80.90;;;;;;4999317;28;20046;-60
2021/06/25 07:26:35;;;;;;;27.13;5.97;;;19.40;80.90;;;;;;5006015;28;20473;-60
2021/06/25 07:29:01;;;;;;;57.50;8.55;;;19.40;81.00;;;;;;4985595;28;20026;-59
2021/06/25 07:31:26;;;;;;;31.85;5.88;;;19.40;81.10;;;;;;4984449;28;20047;-60
2021/06/25 07:33:52;;;;;;;46.22;6.38;;;19.40;81.00;;;;;;4979187;28;20085;-60
2021/06/25 07:36:18;;;;;;;101.60;9.90;;;19.40;80.70;;;;;;4983562;28;20096;-59
2021/06/25 07:38:43;;;;;;;34.90;6.10;;;19.40;80.40;;;;;;4999377;28;20133;-60
2021/06/25 07:41:09;;;;;;;30.55;6.10;;;19.40;80.00;;;;;;4993503;28;20133;-59
2021/06/25 07:43:34;;;;;;;48.60;6.28;;;19.50;80.20;;;;;;5002669;28;20056;-59
2021/06/25 07:46:00;;;;;;;30.48;6.55;;;19.50;80.00;;;;;;4952645;28;20556;-59
2021/06/25 07:48:25;;;;;;;23.77;5.40;;;19.50;79.90;;;;;;4987482;28;20054;-60
2021/06/25 07:50:51;;;;;;;32.15;6.60;;;19.50;79.70;;;;;;4983675;28;20601;-60
2021/06/25 07:53:16;;;;;;;51.40;8.38;;;19.50;79.80;;;;;;4985434;28;20109;-59
2021/06/25 07:55:44;;;;;;;49.60;8.18;;;19.50;80.10;;;;;;4965508;28;20037;-60
2021/06/25 07:58:11;;;;;;;30.90;6.65;;;19.50;80.30;;;;;;4998348;28;20046;-59
2021/06/25 08:00:37;;;;;;;26.52;6.72;;;19.60;80.30;;;;;;4998942;28;20025;-59
2021/06/25 08:03:02;;;;;;;43.08;8.50;;;19.60;80.30;;;;;;4982231;28;20098;-59
2021/06/25 08:05:28;;;;;;;38.45;8.60;;;19.60;80.20;;;;;;4979653;28;20026;-60
2021/06/25 08:07:53;;;;;;;50.40;8.27;;;19.70;80.30;;;;;;4997689;28;20089;-61
2021/06/25 08:10:19;;;;;;;50.97;8.65;;;19.70;80.30;;;;;;4982961;28;20050;-59
2021/06/25 08:12:44;;;;;;;45.63;9.23;;;19.70;80.20;;;;;;4995632;28;20026;-59
2021/06/25 08:15:11;;;;;;;40.50;8.02;;;19.70;80.10;;;;;;4981827;28;20097;-59
2021/06/25 08:17:37;;;;;;;49.90;9.65;;;19.70;80.10;;;;;;4988946;28;20605;-59
2021/06/25 08:20:04;;;;;;;35.28;8.85;;;19.70;80.30;;;;;;4992387;28;20046;-60
2021/06/25 08:22:29;;;;;;;49.65;8.25;;;19.70;80.10;;;;;;4968915;28;20056;-61
2021/06/25 08:24:55;;;;;;;30.23;7.32;;;19.80;80.00;;;;;;5014086;28;20089;-59
2021/06/25 08:27:20;;;;;;;30.65;8.25;;;19.80;79.90;;;;;;4985666;28;20060;-59
2021/06/25 08:29:46;;;;;;;94.28;12.98;;;19.80;79.90;;;;;;4983723;28;20065;-59
2021/06/25 08:32:11;;;;;;;70.40;11.20;;;19.90;79.90;;;;;;5017411;28;20033;-59
2021/06/25 08:34:37;;;;;;;50.35;10.38;;;19.80;79.70;;;;;;5018650;28;20081;-60
2021/06/25 08:37:03;;;;;;;50.63;9.18;;;19.80;79.60;;;;;;5005811;28;20113;-59
2021/06/25 08:39:30;;;;;;;44.67;8.70;;;19.80;79.60;;;;;;4986262;28;20038;-59
2021/06/25 08:41:55;;;;;;;51.78;9.48;;;19.90;79.50;;;;;;4999519;28;20040;-59
2021/06/25 08:44:21;;;;;;;57.28;9.20;;;19.90;79.70;;;;;;5019179;28;20030;-60
2021/06/25 08:46:47;;;;;;;64.38;9.50;;;19.90;79.50;;;;;;5000899;28;20096;-59
2021/06/25 08:49:12;;;;;;;73.38;10.20;;;19.90;79.40;;;;;;5006521;28;20036;-61
2021/06/25 08:51:38;;;;;;;66.70;10.35;;;20.00;79.50;;;;;;4985969;28;20049;-60
2021/06/25 08:54:04;;;;;;;56.88;9.02;;;20.00;79.60;;;;;;5019354;28;20793;-61
2021/06/25 08:56:32;;;;;;;64.90;9.98;;;19.70;79.50;;;;;;5005182;28;20046;-59
2021/06/25 08:58:57;;;;;;;41.75;8.00;;;20.00;79.60;;;;;;5013656;28;20054;-60
2021/06/25 09:01:23;;;;;;;88.03;11.23;;;20.10;79.20;;;;;;5003190;28;20014;-60
2021/06/25 09:03:52;;;;;;;51.17;7.60;;;20.10;78.90;;;;;;4968549;28;20072;-60
2021/06/25 09:06:18;;;;;;;64.13;8.30;;;20.10;78.80;;;;;;4986509;28;20029;-60
2021/06/25 09:08:44;;;;;;;42.05;8.05;;;20.10;78.60;;;;;;5018136;28;20090;-61
2021/06/25 09:11:16;;;;;;;58.03;7.47;;;20.20;78.50;;;;;;5001321;28;20065;-60
2021/06/25 09:13:42;;;;;;;59.15;7.93;;;20.20;79.00;;;;;;4983215;28;20113;-61
2021/06/25 09:16:21;;;;;;;73.18;10.98;;;20.20;78.10;;;;;;5018320;28;20121;-60
2021/06/25 09:19:07;;;;;;;48.78;8.63;;;20.20;77.80;;;;;;5003615;28;20108;-60
2021/06/25 09:21:35;;;;;;;44.97;7.80;;;20.20;77.60;;;;;;5000485;28;21155;-61
2021/06/25 09:24:19;;;;;;;56.30;7.63;;;20.30;77.60;;;;;;4982550;28;20854;-61
2021/06/25 09:26:45;;;;;;;75.18;9.23;;;20.30;77.40;;;;;;5008665;28;21408;-61
2021/06/25 09:29:20;;;;;;;149.45;15.05;;;20.30;77.00;;;;;;5021630;28;20099;-60
2021/06/25 09:32:01;;;;;;;82.85;8.88;;;20.20;77.30;;;;;;5001510;28;20036;-61
2021/06/25 09:35:00;;;;;;;51.38;7.80;;;20.30;77.50;;;;;;5015223;28;20022;-60
2021/06/25 09:37:26;;;;;;;61.50;9.23;;;20.40;77.50;;;;;;4986228;28;20049;-60
2021/06/25 09:40:02;;;;;;;60.38;8.77;;;20.30;77.50;;;;;;5014859;28;20037;-61
2021/06/25 09:42:28;;;;;;;43.42;7.43;;;20.40;77.40;;;;;;4992365;28;20053;-61
2021/06/25 09:45:05;;;;;;;54.90;7.75;;;20.40;77.30;;;;;;4997728;28;20037;-61
2021/06/25 09:47:35;;;;;;;53.17;7.32;;;20.50;77.40;;;;;;4984821;28;20084;-61
2021/06/25 09:50:17;;;;;;;49.05;7.55;;;20.40;77.10;;;;;;5002903;28;20061;-62
2021/06/25 09:52:56;;;;;;;47.22;6.57;;;20.40;77.00;;;;;;5001117;28;20112;-61
2021/06/25 09:55:22;;;;;;;47.88;7.68;;;20.40;77.10;;;;;;4985151;28;20401;-61
2021/06/25 10:03:58;;;;;;;25.10;5.28;;;20.40;77.00;;;;;;5015901;28;20052;-60
2021/06/25 10:06:34;;;;;;;32.40;5.65;;;20.40;76.90;;;;;;5003370;28;20075;-60
2021/06/25 10:09:00;;;;;;;;;;;20.40;76.90;;;;;;4998184;28;20453;-62
2021/06/25 10:11:27;;;;;;;68.80;9.77;;;20.40;76.70;;;;;;4998296;28;19917;-59
2021/06/25 10:13:54;;;;;;;67.22;7.68;;;20.40;77.00;;;;;;5000843;28;20141;-61
2021/06/25 10:16:20;;;;;;;83.00;10.35;;;20.50;77.10;;;;;;4958137;28;20037;-60
2021/06/25 10:18:47;;;;;;;55.38;8.20;;;20.50;76.90;;;;;;4994168;28;20084;-61
2021/06/25 10:21:14;;;;;;;56.33;7.05;;;20.50;76.50;;;;;;4991721;28;20057;-60
2021/06/25 10:23:44;;;;;;;76.95;9.70;;;20.50;76.80;;;;;;5018113;28;20046;-61
2021/06/25 10:26:11;;;;;;;74.85;9.43;;;20.60;76.00;;;;;;5016117;28;20191;-60
2021/06/25 10:28:42;;;;;;;57.95;7.15;;;20.60;76.10;;;;;;4986672;28;20129;-59
2021/06/25 10:31:11;;;;;;;62.58;8.20;;;20.60;75.90;;;;;;4999103;28;20061;-60
2021/06/25 10:33:37;;;;;;;41.35;6.32;;;20.60;75.90;;;;;;5019067;28;20149;-60
2021/06/25 10:36:04;;;;;;;39.03;6.40;;;20.60;75.80;;;;;;4983839;28;20100;-60
2021/06/25 10:38:30;;;;;;;41.08;6.43;;;20.70;75.70;;;;;;5001525;28;20056;-60
2021/06/25 10:41:00;;;;;;;48.80;7.00;;;20.70;75.50;;;;;;4974173;28;20397;-60
2021/06/25 10:43:46;;;;;;;67.07;7.50;;;20.70;75.30;;;;;;5018534;28;20627;-61
2021/06/25 10:46:39;;;;;;;47.72;5.40;;;20.70;75.20;;;;;;5004256;28;20026;-61
2021/06/25 10:49:10;;;;;;;46.67;6.38;;;20.70;74.80;;;;;;5012779;28;20133;-60
2021/06/25 10:51:37;;;;;;;43.47;8.10;;;20.70;74.50;;;;;;4998929;28;20481;-61
2021/06/25 10:54:16;;;;;;;201.05;18.05;;;20.70;74.30;;;;;;5017539;28;20037;-60
2021/06/25 10:56:48;;;;;;;83.10;7.85;;;20.70;73.90;;;;;;4986689;28;20346;-60
2021/06/25 10:59:27;;;;;;;78.20;8.25;;;20.70;73.80;;;;;;5001128;28;20022;-59
2021/06/25 11:01:54;;;;;;;65.13;8.23;;;20.80;73.70;;;;;;4980112;28;20045;-60
2021/06/25 11:04:35;;;;;;;40.47;6.60;;;20.90;73.40;;;;;;4982724;28;20029;-60
2021/06/25 11:07:15;;;;;;;40.17;6.20;;;21.00;73.30;;;;;;5011993;28;20022;-61
2021/06/25 11:09:55;;;;;;;45.95;6.65;;;21.00;72.90;;;;;;5010202;28;20021;-61
2021/06/25 11:12:21;;;;;;;57.67;7.15;;;21.20;72.70;;;;;;4993048;28;20022;-60
2021/06/25 11:14:50;;;;;;;42.38;6.22;;;21.20;72.40;;;;;;4995295;28;20034;-60
2021/06/25 11:17:54;;;;;;;28.67;5.53;;;21.30;72.30;;;;;;4982522;28;20060;-61
2021/06/25 11:20:35;;;;;;;45.10;5.40;;;21.30;72.20;;;;;;4958529;28;20042;-61
2021/06/25 11:23:17;;;;;;;77.82;7.95;;;21.30;72.30;;;;;;5017691;28;20034;-60
2021/06/25 11:25:46;;;;;;;36.30;5.43;;;21.30;72.60;;;;;;4988609;28;20026;-62
2021/06/25 11:28:18;;;;;;;30.17;6.03;;;21.30;72.70;;;;;;5001680;28;20049;-60
2021/06/25 11:31:05;;;;;;;67.82;8.45;;;21.30;72.80;;;;;;5003975;28;20084;-62
2021/06/25 11:33:36;;;;;;;46.00;5.97;;;21.40;72.50;;;;;;5000817;28;20037;-60
2021/06/25 11:36:16;;;;;;;32.35;6.32;;;21.40;72.40;;;;;;4976295;28;20034;-61
2021/06/25 11:38:54;;;;;;;45.83;6.63;;;21.40;72.40;;;;;;4999863;28;20044;-61
2021/06/25 11:41:20;;;;;;;36.15;6.65;;;21.40;72.20;;;;;;5014362;28;21909;-60
2021/06/25 11:43:49;;;;;;;55.97;6.82;;;21.40;72.20;;;;;;5018275;28;20038;-61
2021/06/25 11:46:18;;;;;;;51.97;7.15;;;21.50;72.10;;;;;;4991539;28;20101;-60
2021/06/25 11:48:44;;;;;;;40.08;6.22;;;21.50;72.00;;;;;;4990537;28;20567;-60
2021/06/25 11:51:12;;;;;;;47.08;6.22;;;21.50;71.80;;;;;;5006163;28;20034;-60
2021/06/25 11:53:40;;;;;;;31.73;5.25;;;21.50;71.50;;;;;;5005777;28;20346;-61
2021/06/25 11:56:05;;;;;;;40.35;5.35;;;21.50;71.60;;;;;;4989135;28;20034;-60
2021/06/25 11:58:31;;;;;;;80.25;7.45;;;21.60;71.20;;;;;;5021304;28;20108;-62
2021/06/25 12:01:01;;;;;;;42.22;6.63;;;21.60;71.30;;;;;;4969943;28;20395;-62
2021/06/25 12:03:27;;;;;;;57.42;5.55;;;21.50;71.00;;;;;;4986169;28;20033;-61
2021/06/25 12:05:52;;;;;;;45.50;6.43;;;21.60;71.20;;;;;;4998876;28;20041;-62
2021/06/25 12:08:18;;;;;;;43.70;5.90;;;21.60;71.30;;;;;;5005487;28;20061;-60
2021/06/25 12:10:56;;;;;;;60.45;6.47;;;21.50;71.50;;;;;;5003657;28;20660;-61
2021/06/25 12:13:22;;;;;;;43.20;5.95;;;21.60;71.70;;;;;;5020492;28;20026;-61
2021/06/25 12:15:48;;;;;;;42.10;6.70;;;21.30;71.80;;;;;;5005870;28;20112;-60
2021/06/25 12:18:18;;;;;;;29.67;5.88;;;21.60;72.00;;;;;;5006791;28;20504;-61
2021/06/25 12:20:43;;;;;;;54.45;6.82;;;21.60;72.40;;;;;;5010526;28;20129;-63
2021/06/25 12:23:09;;;;;;;47.70;7.43;;;21.60;72.50;;;;;;5005818;28;20121;-61
2021/06/25 12:25:39;;;;;;;72.90;7.35;;;21.70;72.50;;;;;;5004676;28;20385;-62
2021/06/25 12:28:24;;;;;;;39.10;6.45;;;21.70;72.50;;;;;;5015731;28;20466;-62
2021/06/25 12:30:56;;;;;;;54.47;6.72;;;21.70;72.20;;;;;;4977018;28;20486;-61
2021/06/25 12:33:24;;;;;;;63.88;7.45;;;21.70;72.00;;;;;;5002897;28;20090;-60
2021/06/25 12:35:51;;;;;;;76.45;8.38;;;21.70;71.80;;;;;;5004039;28;20084;-61
2021/06/25 12:38:18;;;;;;;60.63;8.60;;;21.80;71.40;;;;;;4982512;28;20026;-62
2021/06/25 12:40:58;;;;;;;71.47;7.97;;;21.80;71.20;;;;;;4996555;28;20983;-59
2021/06/25 12:43:30;;;;;;;48.10;6.50;;;21.90;71.20;;;;;;4996846;28;20104;-61
2021/06/25 12:46:05;;;;;;;40.13;5.88;;;21.90;70.80;;;;;;5012601;28;20042;-60
2021/06/25 12:48:32;;;;;;;40.47;7.00;;;21.90;70.70;;;;;;5007565;28;20652;-61
2021/06/25 12:51:13;;;;;;;37.53;6.35;;;21.90;70.50;;;;;;4995540;28;20489;-63
2021/06/25 12:53:40;;;;;;;45.72;6.85;;;21.90;70.20;;;;;;5020520;28;20036;-60
2021/06/25 12:56:17;;;;;;;72.22;9.50;;;21.90;70.20;;;;;;4996259;28;20081;-61
2021/06/25 12:58:42;;;;;;;38.13;6.88;;;22.00;70.30;;;;;;4999341;28;20112;-61